Meath Environmental Platform

Observations for Trim Market St

Time AQI Temp °C Hum % Pres Pa CO μg/m³ H₂S μg/m³ NO μg/m³ NO₂ μg/m³ O₃ μg/m³ SO₂ μg/m³ PM1 μg/m³ PM2.5 μg/m³ PM10 μg/m³
Tuesday 25 August 2026
23:30 2 16.7 84 2,147,483,647 0.29 0 1.47 16.3 34.26 0 7.13 7.52 11.88
23:29 2 16.7 84 2,147,483,647 0.3 0 1.58 21.76 39.54 0 7.13 7.99 12.42
23:28 2 16.7 84 2,147,483,647 0.29 0 1.51 19.93 37.72 0 5.7 7.05 11.33
23:27 2 16.7 84 2,147,483,647 0.31 0 1.48 19.26 35.37 0 5.7 8.45 12.97
23:26 2 16.7 84 2,147,483,647 0.33 0 1.37 23.11 29.45 0 5.7 6.12 10.79
23:25 2 16.7 84 2,147,483,647 0.33 0 1.34 24.79 30.78 0 7.13 8.92 13.51
23:24 2 16.7 84 2,147,483,647 0.29 0 1.31 16.6 34.26 0 5.7 6.27 9.71
23:23 2 16.7 84 2,147,483,647 0.32 0 1.34 22.43 35.35 0 7.13 7.99 11.88
23:22 2 16.7 84 2,147,483,647 0.32 0 1.11 23.07 33.23 0 5.7 7.53 12.43
23:21 2 16.7 84 2,147,483,647 0.31 0 1.15 21.74 26.98 0 5.7 7.06 11.34
23:20 2 16.7 84 2,147,483,647 0.32 0 1.33 13.93 42.59 0 7.84 8.93 14.61
23:16 2 16.7 84 2,147,483,647 0.41 0 1.68 22.58 27.21 0 5.7 6.14 10.26
23:15 2 16.7 84 2,147,483,647 0.29 0 1.47 16.58 31.95 0 6.41 6.6 10.26
23:11 2 16.8 84 2,147,483,647 0.29 0 1.25 17.73 32.75 0 4.28 5.67 9.17
23:05 2 16.8 84 2,147,483,647 0.36 0 0.98 14.87 42.24 0 5.7 7.08 11.9
23:00 2 16.8 84 2,147,483,647 0.3 0 1.16 20.31 35.46 0 6.41 7.55 11.9
22:59 2 16.8 84 2,147,483,647 0.3 0 1.14 15.2 35.15 0 6.41 7.09 11.36
22:58 2 16.8 84 2,147,483,647 0.31 0 1.17 21.08 31.36 0 6.41 8.02 12.45
22:57 2 16.8 84 2,147,483,647 0.35 0 1.02 19.06 33.06 0 7.84 9.88 15.72
22:56 2 16.8 84 2,147,483,647 0.31 0 1.17 18.39 33.4 0 7.13 8.95 14.09